createdAt,value
2022-07-31T00:00:44.192Z,1017.33
2022-07-31T00:01:44.605Z,1017.34
2022-07-31T00:02:44.943Z,1017.32
2022-07-31T00:03:45.408Z,1017.29
2022-07-31T00:04:45.701Z,1017.32
2022-07-31T00:05:46.053Z,1017.32
2022-07-31T00:06:46.418Z,1017.31
2022-07-31T00:07:46.898Z,1017.25
2022-07-31T00:08:47.122Z,1017.25
2022-07-31T00:09:53.756Z,1017.29
2022-07-31T00:10:47.875Z,1017.25
2022-07-31T00:11:48.226Z,1017.22
2022-07-31T00:12:48.605Z,1017.25
2022-07-31T00:13:57.706Z,1017.26
2022-07-31T00:14:49.415Z,1017.23
2022-07-31T00:15:49.679Z,1017.21
2022-07-31T00:16:50.036Z,1017.19
2022-07-31T00:17:50.424Z,1017.19
2022-07-31T00:18:50.770Z,1017.19
2022-07-31T00:19:51.180Z,1017.17
2022-07-31T00:20:51.667Z,1017.20
2022-07-31T00:21:51.909Z,1017.18
2022-07-31T00:22:52.444Z,1017.19
2022-07-31T00:23:52.810Z,1017.19
2022-07-31T00:24:52.985Z,1017.14
2022-07-31T00:25:53.311Z,1017.16
2022-07-31T00:26:53.707Z,1017.21
2022-07-31T00:27:54.099Z,1017.18
2022-07-31T00:28:54.623Z,1017.21
2022-07-31T00:29:54.858Z,1017.16
2022-07-31T00:30:55.137Z,1017.10
2022-07-31T00:31:55.504Z,1017.11
2022-07-31T00:32:55.921Z,1017.09
2022-07-31T00:33:56.322Z,1017.09
2022-07-31T00:34:56.633Z,1017.09
2022-07-31T00:35:57.025Z,1017.12
2022-07-31T00:36:57.355Z,1017.11
2022-07-31T00:38:24.658Z,1017.09
2022-07-31T00:38:58.135Z,1017.13
2022-07-31T00:39:58.438Z,1017.09
2022-07-31T00:40:58.795Z,1017.10
2022-07-31T00:41:59.161Z,1017.13
2022-07-31T00:42:59.540Z,1017.10
2022-07-31T00:43:59.897Z,1017.09
2022-07-31T00:45:00.284Z,1017.12
2022-07-31T00:46:00.643Z,1017.08
2022-07-31T00:47:01.368Z,1017.06
2022-07-31T00:48:01.372Z,1017.09
2022-07-31T00:49:01.803Z,1017.03
2022-07-31T00:50:02.111Z,1017.07
2022-07-31T00:51:02.474Z,1017.05
2022-07-31T00:52:03.623Z,1017.04
2022-07-31T00:53:03.241Z,1017.01
2022-07-31T00:54:03.569Z,1016.94
2022-07-31T00:55:03.978Z,1016.95
2022-07-31T00:56:04.300Z,1016.91
2022-07-31T00:57:05.016Z,1016.96
2022-07-31T00:58:05.054Z,1016.91
2022-07-31T00:59:05.395Z,1016.91
2022-07-31T01:00:05.759Z,1016.91
2022-07-31T01:01:06.227Z,1016.89
2022-07-31T01:02:06.488Z,1016.90
2022-07-31T01:03:06.862Z,1016.87
2022-07-31T01:04:07.232Z,1016.82
2022-07-31T01:05:07.580Z,1016.78
2022-07-31T01:06:07.940Z,1016.78
2022-07-31T01:07:08.325Z,1016.81
2022-07-31T01:08:08.734Z,1016.83
2022-07-31T01:09:09.042Z,1016.84
2022-07-31T01:10:09.433Z,1016.82
2022-07-31T01:11:09.757Z,1016.83
2022-07-31T01:12:10.104Z,1016.85
2022-07-31T01:13:10.755Z,1016.81
2022-07-31T01:14:10.835Z,1016.87
2022-07-31T01:15:11.198Z,1016.88
2022-07-31T01:16:11.588Z,1016.88
2022-07-31T01:17:11.926Z,1016.90
2022-07-31T01:18:12.403Z,1016.88
2022-07-31T01:19:12.662Z,1016.91
2022-07-31T01:20:13.018Z,1016.86
2022-07-31T01:21:13.382Z,1016.87
2022-07-31T01:22:33.931Z,1016.86
2022-07-31T01:23:14.111Z,1016.87
2022-07-31T01:24:14.575Z,1016.87
2022-07-31T01:25:14.829Z,1016.91
2022-07-31T01:26:15.204Z,1016.92
2022-07-31T01:27:15.588Z,1016.88
2022-07-31T01:28:15.977Z,1016.90
2022-07-31T01:29:16.295Z,1016.88
2022-07-31T01:30:16.652Z,1016.89
2022-07-31T01:31:26.743Z,1016.87
2022-07-31T01:32:17.381Z,1016.89
2022-07-31T01:33:17.775Z,1016.88
2022-07-31T01:34:18.099Z,1016.91
2022-07-31T01:35:18.491Z,1016.84
2022-07-31T01:36:18.835Z,1016.84
2022-07-31T01:37:19.216Z,1016.91
2022-07-31T01:38:19.592Z,1016.88
2022-07-31T01:39:19.945Z,1016.88
2022-07-31T01:40:20.839Z,1016.86
2022-07-31T01:41:20.637Z,1016.90
2022-07-31T01:42:27.024Z,1016.89
2022-07-31T01:43:21.383Z,1016.87
2022-07-31T01:44:21.746Z,1016.80
2022-07-31T01:45:22.105Z,1016.86
2022-07-31T01:46:22.490Z,1016.83
2022-07-31T01:47:22.843Z,1016.88
2022-07-31T01:48:23.215Z,1016.82
2022-07-31T01:49:23.609Z,1016.84
2022-07-31T01:50:42.448Z,1016.82
2022-07-31T01:51:24.279Z,1016.88
2022-07-31T01:52:24.642Z,1016.82
2022-07-31T01:53:25.010Z,1016.83
2022-07-31T01:54:25.367Z,1016.87
2022-07-31T01:55:25.718Z,1016.84
2022-07-31T01:56:26.079Z,1016.88
2022-07-31T01:57:26.433Z,1016.83
2022-07-31T01:58:26.811Z,1016.80
2022-07-31T01:59:27.150Z,1016.83
2022-07-31T02:00:34.486Z,1016.85
2022-07-31T02:01:27.942Z,1016.83
2022-07-31T02:02:28.225Z,1016.80
2022-07-31T02:03:43.468Z,1016.82
2022-07-31T02:04:28.987Z,1016.78
2022-07-31T02:05:29.347Z,1016.80
2022-07-31T02:06:29.699Z,1016.80
2022-07-31T02:07:30.063Z,1016.79
2022-07-31T02:08:30.447Z,1016.75
2022-07-31T02:09:30.793Z,1016.72
2022-07-31T02:10:31.153Z,1016.72
2022-07-31T02:11:31.521Z,1016.74
2022-07-31T02:12:33.787Z,1016.72
2022-07-31T02:13:32.219Z,1016.70
2022-07-31T02:14:32.581Z,1016.71
2022-07-31T02:15:32.932Z,1016.71
2022-07-31T02:16:33.295Z,1016.74
2022-07-31T02:17:33.647Z,1016.70
2022-07-31T02:18:34.032Z,1016.71
2022-07-31T02:19:34.389Z,1016.74
2022-07-31T02:20:34.753Z,1016.70
2022-07-31T02:21:35.095Z,1016.71
2022-07-31T02:22:35.452Z,1016.77
2022-07-31T02:23:35.824Z,1016.81
2022-07-31T02:24:36.150Z,1016.76
2022-07-31T02:25:36.509Z,1016.80
2022-07-31T02:26:36.868Z,1016.76
2022-07-31T02:27:58.065Z,1016.78
2022-07-31T02:28:37.605Z,1016.70
2022-07-31T02:29:37.949Z,1016.68
2022-07-31T02:30:39.907Z,1016.67
2022-07-31T02:31:38.655Z,1016.66
2022-07-31T02:32:39.019Z,1016.65
2022-07-31T02:33:39.420Z,1016.64
2022-07-31T02:34:39.740Z,1016.63
2022-07-31T02:35:44.248Z,1016.65
2022-07-31T02:36:40.464Z,1016.66
2022-07-31T02:37:40.827Z,1016.66
2022-07-31T02:38:41.222Z,1016.62
2022-07-31T02:39:41.535Z,1016.61
2022-07-31T02:40:42.312Z,1016.61
2022-07-31T02:41:42.233Z,1016.59
2022-07-31T02:42:42.610Z,1016.60
2022-07-31T02:43:43.012Z,1016.55
2022-07-31T02:44:43.369Z,1016.54
2022-07-31T02:45:43.746Z,1016.58
2022-07-31T02:46:44.151Z,1016.56
2022-07-31T02:47:44.494Z,1016.53
2022-07-31T02:48:44.899Z,1016.59
2022-07-31T02:49:44.923Z,1016.53
2022-07-31T02:50:45.221Z,1016.53
2022-07-31T02:51:45.398Z,1016.51
2022-07-31T02:52:45.555Z,1016.49
2022-07-31T02:53:45.871Z,1016.52
2022-07-31T02:54:46.283Z,1016.50
2022-07-31T02:55:46.523Z,1016.54
2022-07-31T02:56:46.695Z,1016.56
2022-07-31T02:57:46.861Z,1016.53
2022-07-31T02:58:47.047Z,1016.53
2022-07-31T02:59:47.203Z,1016.55
2022-07-31T03:00:47.440Z,1016.53
2022-07-31T03:01:47.535Z,1016.54
2022-07-31T03:02:47.711Z,1016.56
2022-07-31T03:03:47.924Z,1016.54
2022-07-31T03:04:48.058Z,1016.60
2022-07-31T03:05:48.215Z,1016.57
2022-07-31T03:06:48.520Z,1016.57
2022-07-31T03:07:48.692Z,1016.56
2022-07-31T03:08:48.902Z,1016.57
2022-07-31T03:09:49.044Z,1016.60
2022-07-31T03:10:49.231Z,1016.56
2022-07-31T03:11:49.512Z,1016.55
2022-07-31T03:12:49.703Z,1016.54
2022-07-31T03:13:50.005Z,1016.51
2022-07-31T03:14:50.277Z,1016.57
2022-07-31T03:15:51.106Z,1016.54
2022-07-31T03:16:50.635Z,1016.51
2022-07-31T03:17:50.919Z,1016.49
2022-07-31T03:18:51.114Z,1016.51
2022-07-31T03:19:51.388Z,1016.51
2022-07-31T03:20:51.675Z,1016.50
2022-07-31T03:21:51.962Z,1016.48
2022-07-31T03:22:52.148Z,1016.46
2022-07-31T03:23:52.445Z,1016.45
2022-07-31T03:24:52.727Z,1016.46
2022-07-31T03:25:53.012Z,1016.41
2022-07-31T03:26:53.197Z,1016.39
2022-07-31T03:27:56.203Z,1016.38
2022-07-31T03:28:53.689Z,1016.35
2022-07-31T03:29:53.974Z,1016.38
2022-07-31T03:30:55.227Z,1016.40
2022-07-31T03:31:54.423Z,1016.43
2022-07-31T03:32:54.724Z,1016.38
2022-07-31T03:33:55.076Z,1016.41
2022-07-31T03:34:55.193Z,1016.40
2022-07-31T03:35:55.371Z,1016.45
2022-07-31T03:36:55.560Z,1016.39
2022-07-31T03:37:55.750Z,1016.38
2022-07-31T03:38:55.956Z,1016.38
2022-07-31T03:39:56.106Z,1016.39
2022-07-31T03:40:56.285Z,1016.39
2022-07-31T03:41:56.458Z,1016.36
2022-07-31T03:42:56.620Z,1016.41
2022-07-31T03:43:56.811Z,1016.45
2022-07-31T03:44:56.971Z,1016.41
2022-07-31T03:45:57.157Z,1016.47
2022-07-31T03:46:57.325Z,1016.42
2022-07-31T03:47:57.492Z,1016.42
2022-07-31T03:48:57.782Z,1016.41
2022-07-31T03:49:57.873Z,1016.41
2022-07-31T03:50:58.065Z,1016.41
2022-07-31T03:51:58.219Z,1016.42
2022-07-31T03:52:58.386Z,1016.43
2022-07-31T03:53:58.594Z,1016.42
2022-07-31T03:54:58.741Z,1016.43
2022-07-31T03:55:58.919Z,1016.39
2022-07-31T03:56:59.101Z,1016.40
2022-07-31T03:57:59.294Z,1016.37
2022-07-31T03:58:59.499Z,1016.35
2022-07-31T04:00:00.061Z,1016.36
2022-07-31T04:00:59.816Z,1016.41
2022-07-31T04:01:59.980Z,1016.41
2022-07-31T04:03:00.173Z,1016.40
2022-07-31T04:04:00.357Z,1016.42
2022-07-31T04:05:00.508Z,1016.37
2022-07-31T04:06:00.699Z,1016.39
2022-07-31T04:07:00.898Z,1016.42
2022-07-31T04:08:01.057Z,1016.44
2022-07-31T04:09:01.245Z,1016.49
2022-07-31T04:10:01.408Z,1016.49
2022-07-31T04:11:01.571Z,1016.55
2022-07-31T04:12:02.219Z,1016.51
2022-07-31T04:13:02.054Z,1016.45
2022-07-31T04:14:02.275Z,1016.50
2022-07-31T04:15:02.416Z,1016.45
2022-07-31T04:16:02.789Z,1016.49
2022-07-31T04:17:02.779Z,1016.43
2022-07-31T04:18:02.951Z,1016.47
2022-07-31T04:19:03.159Z,1016.49
2022-07-31T04:20:05.595Z,1016.51
2022-07-31T04:21:03.533Z,1016.48
2022-07-31T04:22:04.119Z,1016.47
2022-07-31T04:23:03.900Z,1016.51
2022-07-31T04:24:04.103Z,1016.51
2022-07-31T04:25:04.296Z,1016.54
2022-07-31T04:26:04.482Z,1016.54
2022-07-31T04:27:08.152Z,1016.52
2022-07-31T04:28:04.870Z,1016.54
2022-07-31T04:29:05.081Z,1016.55
2022-07-31T04:30:05.258Z,1016.55
2022-07-31T04:31:05.397Z,1016.51
2022-07-31T04:32:06.009Z,1016.55
2022-07-31T04:33:05.765Z,1016.53
2022-07-31T04:34:05.989Z,1016.58
2022-07-31T04:35:06.135Z,1016.62
2022-07-31T04:36:06.321Z,1016.63
2022-07-31T04:37:06.509Z,1016.58
2022-07-31T04:38:06.698Z,1016.62
2022-07-31T04:39:06.923Z,1016.58
2022-07-31T04:40:07.081Z,1016.62
2022-07-31T04:41:07.271Z,1016.60
2022-07-31T04:42:11.251Z,1016.57
2022-07-31T04:43:07.637Z,1016.57
2022-07-31T04:44:07.853Z,1016.53
2022-07-31T04:45:08.043Z,1016.54
2022-07-31T04:46:17.607Z,1016.52
2022-07-31T04:47:08.419Z,1016.56
2022-07-31T04:48:08.613Z,1016.59
2022-07-31T04:49:08.887Z,1016.57
2022-07-31T04:50:09.007Z,1016.61
2022-07-31T04:51:09.233Z,1016.51
2022-07-31T04:52:09.402Z,1016.55
2022-07-31T04:53:09.598Z,1016.52
2022-07-31T04:54:09.831Z,1016.49
2022-07-31T04:55:09.962Z,1016.56
2022-07-31T04:56:10.175Z,1016.54
2022-07-31T04:57:10.322Z,1016.59
2022-07-31T04:58:10.525Z,1016.57
2022-07-31T04:59:10.760Z,1016.56
2022-07-31T05:00:10.918Z,1016.52
2022-07-31T05:01:11.162Z,1016.53
2022-07-31T05:02:11.339Z,1016.46
2022-07-31T05:03:11.471Z,1016.49
2022-07-31T05:04:11.680Z,1016.52
2022-07-31T05:05:11.835Z,1016.50
2022-07-31T05:06:12.025Z,1016.44
2022-07-31T05:07:12.214Z,1016.49
2022-07-31T05:08:12.410Z,1016.45
2022-07-31T05:09:18.396Z,1016.45
2022-07-31T05:10:12.814Z,1016.42
2022-07-31T05:11:13.030Z,1016.42
2022-07-31T05:12:13.195Z,1016.39
2022-07-31T05:13:13.380Z,1016.35
2022-07-31T05:14:13.595Z,1016.34
2022-07-31T05:15:13.775Z,1016.33
2022-07-31T05:16:13.979Z,1016.33
2022-07-31T05:17:14.128Z,1016.29
2022-07-31T05:18:14.330Z,1016.32
2022-07-31T05:19:14.974Z,1016.37
2022-07-31T05:20:14.731Z,1016.30
2022-07-31T05:21:14.912Z,1016.32
2022-07-31T05:22:15.064Z,1016.32
2022-07-31T05:23:15.231Z,1016.35
2022-07-31T05:24:15.462Z,1016.35
2022-07-31T05:25:15.643Z,1016.36
2022-07-31T05:26:15.856Z,1016.33
2022-07-31T05:27:16.045Z,1016.37
2022-07-31T05:28:16.246Z,1016.32
2022-07-31T05:29:16.421Z,1016.34
2022-07-31T05:30:16.580Z,1016.31
2022-07-31T05:31:16.778Z,1016.36
2022-07-31T05:32:17.485Z,1016.35
2022-07-31T05:33:17.138Z,1016.36
2022-07-31T05:34:17.392Z,1016.38
2022-07-31T05:35:17.543Z,1016.34
2022-07-31T05:36:17.730Z,1016.34
2022-07-31T05:37:17.946Z,1016.30
2022-07-31T05:38:18.097Z,1016.28
2022-07-31T05:39:18.306Z,1016.24
2022-07-31T05:40:18.546Z,1016.23
2022-07-31T05:41:18.705Z,1016.27
2022-07-31T05:42:18.891Z,1016.29
2022-07-31T05:43:19.077Z,1016.26
2022-07-31T05:44:19.269Z,1016.30
2022-07-31T05:45:19.416Z,1016.35
2022-07-31T05:46:19.606Z,1016.34
2022-07-31T05:47:19.819Z,1016.26
2022-07-31T05:48:19.984Z,1016.32
2022-07-31T05:49:20.279Z,1016.29
2022-07-31T05:50:20.355Z,1016.30
2022-07-31T05:51:20.543Z,1016.32
2022-07-31T05:52:20.754Z,1016.31
2022-07-31T05:53:20.955Z,1016.31
2022-07-31T05:54:21.159Z,1016.28
2022-07-31T05:55:21.340Z,1016.24
2022-07-31T05:56:21.535Z,1016.22
2022-07-31T05:57:33.567Z,1016.27
2022-07-31T05:58:21.937Z,1016.31
2022-07-31T05:59:22.141Z,1016.31
2022-07-31T06:00:22.335Z,1016.37
2022-07-31T06:01:22.537Z,1016.27
2022-07-31T06:02:22.728Z,1016.30
2022-07-31T06:03:22.881Z,1016.31
2022-07-31T06:04:23.094Z,1016.29
2022-07-31T06:05:23.250Z,1016.28
2022-07-31T06:06:23.443Z,1016.28
2022-07-31T06:07:23.693Z,1016.25
2022-07-31T06:08:23.822Z,1016.23
2022-07-31T06:09:24.022Z,1016.23
2022-07-31T06:10:24.181Z,1016.27
2022-07-31T06:11:24.367Z,1016.21
2022-07-31T06:12:24.552Z,1016.23
2022-07-31T06:13:24.727Z,1016.22
2022-07-31T06:14:24.954Z,1016.23
2022-07-31T06:15:25.113Z,1016.16
2022-07-31T06:16:25.305Z,1016.23
2022-07-31T06:17:40.306Z,1016.24
2022-07-31T06:18:25.695Z,1016.23
2022-07-31T06:19:25.895Z,1016.26
2022-07-31T06:20:26.273Z,1016.29
2022-07-31T06:21:30.405Z,1016.31
2022-07-31T06:22:26.459Z,1016.31
2022-07-31T06:23:29.538Z,1016.34
2022-07-31T06:24:26.883Z,1016.36
2022-07-31T06:25:31.769Z,1016.37
2022-07-31T06:26:27.780Z,1016.37
2022-07-31T06:27:34.179Z,1016.38
2022-07-31T06:28:37.879Z,1016.39
2022-07-31T06:29:41.961Z,1016.42
2022-07-31T06:30:28.046Z,1016.40
2022-07-31T06:31:28.160Z,1016.41
2022-07-31T06:32:28.356Z,1016.44
2022-07-31T06:33:36.749Z,1016.41
2022-07-31T06:34:28.791Z,1016.43
2022-07-31T06:35:28.913Z,1016.40
2022-07-31T06:36:29.108Z,1016.39
2022-07-31T06:37:29.292Z,1016.44
2022-07-31T06:38:29.469Z,1016.44
2022-07-31T06:39:54.856Z,1016.38
2022-07-31T06:40:29.871Z,1016.40
2022-07-31T06:41:30.069Z,1016.42
2022-07-31T06:42:30.254Z,1016.41
2022-07-31T06:43:30.447Z,1016.36
2022-07-31T06:44:30.653Z,1016.36
2022-07-31T06:45:50.954Z,1016.36
2022-07-31T06:46:31.011Z,1016.33
2022-07-31T06:47:31.182Z,1016.34
2022-07-31T06:48:31.414Z,1016.34
2022-07-31T06:49:31.684Z,1016.34
2022-07-31T06:50:31.748Z,1016.36
2022-07-31T06:51:32.517Z,1016.37
2022-07-31T06:52:32.117Z,1016.35
2022-07-31T06:53:32.329Z,1016.33
2022-07-31T06:54:32.502Z,1016.28
2022-07-31T06:55:32.680Z,1016.24
2022-07-31T06:56:32.871Z,1016.22
2022-07-31T06:57:33.054Z,1016.21
2022-07-31T06:58:33.239Z,1016.18
2022-07-31T06:59:40.029Z,1016.18
2022-07-31T07:00:33.632Z,1016.17
2022-07-31T07:01:33.888Z,1016.18
2022-07-31T07:02:34.028Z,1016.19
2022-07-31T07:03:34.217Z,1016.16
2022-07-31T07:04:56.463Z,1016.13
2022-07-31T07:05:34.607Z,1016.13
2022-07-31T07:06:34.796Z,1016.14
2022-07-31T07:07:34.986Z,1016.17
2022-07-31T07:08:35.200Z,1016.18
2022-07-31T07:09:35.400Z,1016.15
2022-07-31T07:10:35.551Z,1016.17
2022-07-31T07:11:35.726Z,1016.15
2022-07-31T07:12:36.011Z,1016.15
2022-07-31T07:13:45.368Z,1016.10
2022-07-31T07:14:36.344Z,1016.13
2022-07-31T07:15:36.523Z,1016.10
2022-07-31T07:16:36.690Z,1016.12
2022-07-31T07:17:36.883Z,1016.13
2022-07-31T07:18:37.070Z,1016.10
2022-07-31T07:19:37.318Z,1016.12
2022-07-31T07:20:37.433Z,1016.11
2022-07-31T07:21:37.626Z,1016.08
2022-07-31T07:22:37.823Z,1016.07
2022-07-31T07:23:38.013Z,1016.09
2022-07-31T07:24:38.195Z,1016.06
2022-07-31T07:25:38.380Z,1016.07
2022-07-31T07:26:38.564Z,1016.06
2022-07-31T07:27:38.757Z,1016.06
2022-07-31T07:28:38.951Z,1016.08
2022-07-31T07:29:39.163Z,1016.05
2022-07-31T07:30:39.349Z,1016.03
2022-07-31T07:31:39.551Z,1016.07
2022-07-31T07:32:39.753Z,1016.01
2022-07-31T07:33:42.737Z,1016.00
2022-07-31T07:34:40.199Z,1016.01
2022-07-31T07:35:40.321Z,1016.06
2022-07-31T07:36:40.535Z,1016.10
2022-07-31T07:37:40.696Z,1016.10
2022-07-31T07:38:40.894Z,1016.07
2022-07-31T07:39:41.089Z,1016.14
2022-07-31T07:40:41.273Z,1016.10
2022-07-31T07:41:41.455Z,1016.19
2022-07-31T07:42:41.628Z,1016.18
2022-07-31T07:43:41.832Z,1016.12
2022-07-31T07:44:42.044Z,1016.14
2022-07-31T07:45:42.192Z,1016.17
2022-07-31T07:46:42.397Z,1016.13
2022-07-31T07:47:53.784Z,1016.06
2022-07-31T07:48:42.801Z,1016.01
2022-07-31T07:49:42.999Z,1016.10
2022-07-31T07:50:43.180Z,1016.09
2022-07-31T07:51:58.682Z,1016.04
2022-07-31T07:52:44.045Z,1015.96
2022-07-31T07:53:43.822Z,1016.02
2022-07-31T07:54:44.007Z,1015.99
2022-07-31T07:55:44.145Z,1016.00
2022-07-31T07:56:44.354Z,1015.97
2022-07-31T07:57:44.563Z,1015.96
2022-07-31T07:58:44.777Z,1015.97
2022-07-31T07:59:45.011Z,1015.98
2022-07-31T08:00:45.303Z,1015.97
2022-07-31T08:01:45.396Z,1015.93
2022-07-31T08:03:47.037Z,1015.98
2022-07-31T08:03:56.134Z,1015.94
2022-07-31T08:04:47.717Z,1015.98
2022-07-31T08:05:46.174Z,1015.94
2022-07-31T08:06:46.416Z,1015.95
2022-07-31T08:07:46.559Z,1015.93
2022-07-31T08:08:46.778Z,1015.88
2022-07-31T08:09:46.984Z,1015.86
2022-07-31T08:10:47.221Z,1015.88
2022-07-31T08:11:47.397Z,1015.89
2022-07-31T08:12:47.630Z,1015.86
2022-07-31T08:13:51.037Z,1015.86
2022-07-31T08:14:48.006Z,1015.88
2022-07-31T08:15:48.174Z,1015.94
2022-07-31T08:16:48.427Z,1015.96
2022-07-31T08:17:48.558Z,1015.93
2022-07-31T08:18:48.718Z,1015.89
2022-07-31T08:19:51.316Z,1015.93
2022-07-31T08:20:49.104Z,1015.89
2022-07-31T08:21:49.304Z,1015.93
2022-07-31T08:22:49.493Z,1015.91
2022-07-31T08:23:49.697Z,1015.89
2022-07-31T08:24:50.056Z,1015.88
2022-07-31T08:25:50.115Z,1015.90
2022-07-31T08:26:50.297Z,1015.86
2022-07-31T08:27:50.496Z,1015.86
2022-07-31T08:28:51.303Z,1015.94
2022-07-31T08:29:50.905Z,1015.92
2022-07-31T08:30:51.078Z,1015.91
2022-07-31T08:31:51.285Z,1015.91
2022-07-31T08:32:51.480Z,1015.95
2022-07-31T08:33:51.690Z,1015.90
2022-07-31T08:34:52.001Z,1015.90
2022-07-31T08:35:52.041Z,1015.93
2022-07-31T08:36:52.245Z,1015.96
2022-07-31T08:38:03.334Z,1015.90
2022-07-31T08:38:52.653Z,1015.91
2022-07-31T08:39:52.842Z,1015.91
2022-07-31T08:40:53.000Z,1015.93
2022-07-31T08:41:53.191Z,1015.82
2022-07-31T08:42:53.385Z,1015.79
2022-07-31T08:43:59.850Z,1015.83
2022-07-31T08:44:53.751Z,1015.81
2022-07-31T08:45:53.924Z,1015.85
2022-07-31T08:46:54.128Z,1015.78
2022-07-31T08:47:54.336Z,1015.81
2022-07-31T08:48:54.667Z,1015.86
2022-07-31T08:49:54.771Z,1015.80
2022-07-31T08:50:54.949Z,1015.79
2022-07-31T08:51:55.171Z,1015.78
2022-07-31T08:52:55.339Z,1015.76
2022-07-31T08:53:55.528Z,1015.73
2022-07-31T08:54:55.912Z,1015.77
2022-07-31T08:55:57.884Z,1015.75
2022-07-31T08:56:56.103Z,1015.75
2022-07-31T08:57:56.296Z,1015.75
2022-07-31T08:58:56.503Z,1015.70
2022-07-31T08:59:56.714Z,1015.73
2022-07-31T09:00:56.977Z,1015.72
2022-07-31T09:01:57.128Z,1015.70
2022-07-31T09:02:57.341Z,1015.68
2022-07-31T09:03:57.527Z,1015.69
2022-07-31T09:04:57.738Z,1015.68
2022-07-31T09:05:57.934Z,1015.66
2022-07-31T09:06:58.119Z,1015.63
2022-07-31T09:07:58.305Z,1015.70
2022-07-31T09:08:58.535Z,1015.67
2022-07-31T09:09:58.740Z,1015.70
2022-07-31T09:10:58.931Z,1015.68
2022-07-31T09:11:59.112Z,1015.62
2022-07-31T09:12:59.300Z,1015.61
2022-07-31T09:14:01.759Z,1015.59
2022-07-31T09:14:59.695Z,1015.63
2022-07-31T09:15:59.887Z,1015.61
2022-07-31T09:17:00.071Z,1015.65
2022-07-31T09:18:00.253Z,1015.60
2022-07-31T09:19:00.438Z,1015.61
2022-07-31T09:20:00.675Z,1015.57
2022-07-31T09:21:02.108Z,1015.61
2022-07-31T09:22:01.055Z,1015.58
2022-07-31T09:23:01.265Z,1015.54
2022-07-31T09:24:01.458Z,1015.52
2022-07-31T09:25:01.654Z,1015.49
2022-07-31T09:26:01.846Z,1015.50
2022-07-31T09:27:02.506Z,1015.47
2022-07-31T09:28:02.238Z,1015.48
2022-07-31T09:29:02.431Z,1015.47
2022-07-31T09:30:02.661Z,1015.52
2022-07-31T09:31:02.853Z,1015.46
2022-07-31T09:32:03.026Z,1015.44
2022-07-31T09:33:03.208Z,1015.46
2022-07-31T09:34:03.390Z,1015.43
2022-07-31T09:35:03.621Z,1015.42
2022-07-31T09:36:03.770Z,1015.39
2022-07-31T09:37:04.191Z,1015.40
2022-07-31T09:38:04.514Z,1015.42
2022-07-31T09:39:05.385Z,1015.36
2022-07-31T09:40:04.580Z,1015.39
2022-07-31T09:41:07.685Z,1015.38
2022-07-31T09:42:16.183Z,1015.35
2022-07-31T09:43:05.162Z,1015.38
2022-07-31T09:44:09.885Z,1015.32
2022-07-31T09:45:05.579Z,1015.26
2022-07-31T09:46:05.800Z,1015.28
2022-07-31T09:47:06.253Z,1015.27
2022-07-31T09:48:06.358Z,1015.25
2022-07-31T09:49:06.354Z,1015.22
2022-07-31T09:50:06.534Z,1015.24
2022-07-31T09:51:06.723Z,1015.19
2022-07-31T09:52:06.910Z,1015.21
2022-07-31T09:53:07.097Z,1015.19
2022-07-31T09:54:07.300Z,1015.16
2022-07-31T09:55:16.197Z,1015.18
2022-07-31T09:56:07.721Z,1015.31
2022-07-31T09:57:07.928Z,1015.27
2022-07-31T09:58:08.119Z,1015.20
2022-07-31T09:59:08.305Z,1015.18
2022-07-31T10:00:08.534Z,1015.18
2022-07-31T10:01:08.788Z,1015.20
2022-07-31T10:02:08.922Z,1015.13
2022-07-31T10:03:09.119Z,1015.06
2022-07-31T10:04:09.308Z,1015.11
2022-07-31T10:05:09.535Z,1015.10
2022-07-31T10:06:12.507Z,1015.13
2022-07-31T10:07:09.935Z,1015.04
2022-07-31T10:08:10.152Z,1014.98
2022-07-31T10:09:10.347Z,1015.01
2022-07-31T10:10:10.564Z,1014.97
2022-07-31T10:11:16.510Z,1014.93
2022-07-31T10:12:14.737Z,1014.96
2022-07-31T10:13:11.135Z,1014.93
2022-07-31T10:14:11.321Z,1014.90
2022-07-31T10:15:11.542Z,1014.91
2022-07-31T10:16:11.734Z,1014.86
2022-07-31T10:17:11.913Z,1014.87
2022-07-31T10:18:12.107Z,1014.89
2022-07-31T10:19:12.291Z,1014.97
2022-07-31T10:20:12.500Z,1014.84
2022-07-31T10:21:12.690Z,1014.79
2022-07-31T10:22:12.894Z,1014.84
2022-07-31T10:23:13.129Z,1014.85
2022-07-31T10:24:13.296Z,1014.82
2022-07-31T10:25:13.508Z,1014.83
2022-07-31T10:26:13.672Z,1014.85
2022-07-31T10:27:14.128Z,1014.79
2022-07-31T10:28:14.069Z,1014.85
2022-07-31T10:29:14.262Z,1014.82
2022-07-31T10:30:14.470Z,1014.79
2022-07-31T10:31:14.665Z,1014.79
2022-07-31T10:32:14.887Z,1014.81
2022-07-31T10:33:41.982Z,1014.79
2022-07-31T10:34:15.287Z,1014.78
2022-07-31T10:35:15.537Z,1014.76
2022-07-31T10:36:15.690Z,1014.75
2022-07-31T10:37:15.871Z,1014.74
2022-07-31T10:38:16.066Z,1014.74
2022-07-31T10:39:16.254Z,1014.69
2022-07-31T10:40:16.468Z,1014.68
2022-07-31T10:41:16.652Z,1014.67
2022-07-31T10:42:16.853Z,1014.60
2022-07-31T10:43:17.037Z,1014.64
2022-07-31T10:44:17.248Z,1014.57
2022-07-31T10:45:17.452Z,1014.59
2022-07-31T10:46:17.621Z,1014.55
2022-07-31T10:47:17.805Z,1014.53
2022-07-31T10:48:18.027Z,1014.50
2022-07-31T10:49:18.264Z,1014.59
2022-07-31T10:50:18.436Z,1014.73
2022-07-31T10:51:18.620Z,1014.68
2022-07-31T10:52:18.835Z,1014.69
2022-07-31T10:53:19.010Z,1014.56
2022-07-31T10:54:19.190Z,1014.56
2022-07-31T10:55:19.398Z,1014.33
2022-07-31T10:56:19.569Z,1014.37
2022-07-31T10:57:19.764Z,1014.34
2022-07-31T10:58:19.957Z,1014.27
2022-07-31T10:59:20.152Z,1014.33
2022-07-31T11:00:20.379Z,1014.34
2022-07-31T11:01:20.622Z,1014.28
2022-07-31T11:02:20.780Z,1014.29
2022-07-31T11:03:20.968Z,1014.34
2022-07-31T11:04:21.169Z,1014.33
2022-07-31T11:05:21.407Z,1014.28
2022-07-31T11:06:21.574Z,1014.29
2022-07-31T11:07:21.750Z,1014.32
2022-07-31T11:08:21.938Z,1014.28
2022-07-31T11:09:22.192Z,1014.31
2022-07-31T11:10:22.372Z,1014.30
2022-07-31T11:11:25.981Z,1014.26
2022-07-31T11:12:22.750Z,1014.25
2022-07-31T11:13:22.933Z,1014.25
2022-07-31T11:14:23.149Z,1014.25
2022-07-31T11:15:23.362Z,1014.28
2022-07-31T11:16:23.554Z,1014.30
2022-07-31T11:18:20.992Z,1014.20
2022-07-31T11:18:34.339Z,1014.17
2022-07-31T11:19:24.138Z,1014.25
2022-07-31T11:20:24.351Z,1014.23
2022-07-31T11:21:38.223Z,1014.24
2022-07-31T11:22:31.542Z,1014.19
2022-07-31T11:23:24.912Z,1014.21
2022-07-31T11:24:25.133Z,1014.17
2022-07-31T11:25:25.333Z,1014.19
2022-07-31T11:26:33.146Z,1014.13
2022-07-31T11:27:25.729Z,1014.17
2022-07-31T11:28:25.924Z,1014.11
2022-07-31T11:30:00.740Z,1014.02
2022-07-31T11:30:26.350Z,1014.02
2022-07-31T11:31:26.538Z,1014.00
2022-07-31T11:32:26.909Z,1013.98
2022-07-31T11:33:26.947Z,1013.95
2022-07-31T11:34:27.141Z,1013.94
2022-07-31T11:35:27.375Z,1013.98
2022-07-31T11:36:27.527Z,1014.01
2022-07-31T11:37:38.549Z,1014.04
2022-07-31T11:38:27.931Z,1014.15
2022-07-31T11:39:36.283Z,1014.19
2022-07-31T11:40:28.526Z,1014.15
2022-07-31T11:41:28.522Z,1014.04
2022-07-31T11:42:32.044Z,1013.90
2022-07-31T11:43:28.937Z,1013.95
2022-07-31T11:44:29.124Z,1013.99
2022-07-31T11:45:33.554Z,1014.00
2022-07-31T11:46:29.503Z,1013.94
2022-07-31T11:48:11.996Z,1013.84
2022-07-31T11:48:33.998Z,1013.71
2022-07-31T11:49:41.760Z,1013.66
2022-07-31T11:50:30.338Z,1013.68
2022-07-31T11:51:30.522Z,1013.68
2022-07-31T11:52:37.475Z,1013.69
2022-07-31T11:53:30.940Z,1013.74
2022-07-31T11:54:31.133Z,1013.70
2022-07-31T11:55:31.352Z,1013.73
2022-07-31T11:56:31.525Z,1013.69
2022-07-31T11:57:50.942Z,1013.72
2022-07-31T11:58:31.927Z,1013.69
2022-07-31T11:59:45.391Z,1013.75
2022-07-31T12:00:32.342Z,1013.73
2022-07-31T12:01:32.534Z,1013.72
2022-07-31T12:02:32.787Z,1013.78
2022-07-31T12:03:32.940Z,1013.81
2022-07-31T12:04:33.130Z,1013.67
2022-07-31T12:05:37.712Z,1013.69
2022-07-31T12:06:34.977Z,1013.80
2022-07-31T12:07:33.716Z,1013.67
2022-07-31T12:08:33.898Z,1013.71